createdAt,value
2023-03-27T00:00:29.836Z,23.6
2023-03-27T00:01:31.945Z,23.6
2023-03-27T00:02:34.403Z,23.6
2023-03-27T00:03:37.106Z,23.8
2023-03-27T00:04:39.754Z,23.8
2023-03-27T00:05:41.671Z,23.7
2023-03-27T00:06:43.757Z,23.6
2023-03-27T00:07:45.827Z,23.3
2023-03-27T00:08:47.951Z,23.5
2023-03-27T00:09:50.078Z,24
2023-03-27T00:10:52.176Z,23.4
2023-03-27T00:11:54.505Z,23.3
2023-03-27T00:12:56.521Z,23.3
2023-03-27T00:13:58.406Z,23.7
2023-03-27T00:15:00.297Z,23.5
2023-03-27T00:16:02.571Z,23.5
2023-03-27T00:17:04.299Z,23.3
2023-03-27T00:18:07.006Z,23.6
2023-03-27T00:19:09.192Z,23.6
2023-03-27T00:20:11.103Z,23.7
2023-03-27T00:21:13.250Z,23.9
2023-03-27T00:22:15.493Z,23.3
2023-03-27T00:23:17.374Z,23.2
2023-03-27T00:24:19.492Z,23.7
2023-03-27T00:25:21.001Z,23.5
2023-03-27T00:26:22.700Z,23.8
2023-03-27T00:27:24.848Z,23.2
2023-03-27T00:28:26.936Z,23.8
2023-03-27T00:29:29.089Z,23.3
2023-03-27T00:30:30.972Z,23.2
2023-03-27T00:31:33.288Z,23.7
2023-03-27T00:32:35.409Z,23.7
2023-03-27T00:33:37.877Z,23.6
2023-03-27T00:34:40.022Z,24
2023-03-27T00:35:42.139Z,23.4
2023-03-27T00:36:44.294Z,23.7
2023-03-27T00:37:45.781Z,23.7
2023-03-27T00:38:47.681Z,23.5
2023-03-27T00:39:49.624Z,23.8
2023-03-27T00:40:51.602Z,23.5
2023-03-27T00:41:53.490Z,23.5
2023-03-27T00:42:55.423Z,23.5
2023-03-27T00:43:57.207Z,23.7
2023-03-27T00:44:59.151Z,23.2
2023-03-27T00:46:01.289Z,23.3
2023-03-27T00:47:03.273Z,23.3
2023-03-27T00:48:05.008Z,23.8
2023-03-27T00:49:07.540Z,23.7
2023-03-27T00:50:09.442Z,23.8
2023-03-27T00:51:11.146Z,23.5
2023-03-27T00:52:13.039Z,23.7
2023-03-27T00:53:15.131Z,23.6
2023-03-27T00:54:17.230Z,23.9
2023-03-27T00:55:18.754Z,23.5
2023-03-27T00:56:20.855Z,23.3
2023-03-27T00:57:22.577Z,23.6
2023-03-27T00:58:24.441Z,23.5
2023-03-27T00:59:26.384Z,23.5
2023-03-27T01:00:28.057Z,23.7
2023-03-27T01:01:30.203Z,23.5
2023-03-27T01:02:32.503Z,23.7
2023-03-27T01:03:35.002Z,23.6
2023-03-27T01:04:37.798Z,23.2
2023-03-27T01:05:39.709Z,23.7
2023-03-27T01:06:41.824Z,23.6
2023-03-27T01:08:00.175Z,23.8
2023-03-27T01:08:49.116Z,23.6
2023-03-27T01:09:51.226Z,23.9
2023-03-27T01:10:53.352Z,23.6
2023-03-27T01:11:56.285Z,23.4
2023-03-27T01:12:58.377Z,23.4
2023-03-27T01:14:00.704Z,23.5
2023-03-27T01:15:02.613Z,23.5
2023-03-27T01:16:04.561Z,24
2023-03-27T01:17:06.921Z,23.2
2023-03-27T01:18:09.065Z,24
2023-03-27T01:19:11.137Z,23.5
2023-03-27T01:20:13.331Z,23.5
2023-03-27T01:21:15.552Z,23.6
2023-03-27T01:22:17.423Z,23.7
2023-03-27T01:23:35.544Z,23.8
2023-03-27T01:24:24.291Z,23.7
2023-03-27T01:25:26.380Z,23.9
2023-03-27T01:26:35.385Z,23.9
2023-03-27T01:27:33.424Z,23.8
2023-03-27T01:28:39.222Z,23.8
2023-03-27T01:29:41.314Z,23.6
2023-03-27T01:30:43.194Z,23.4
2023-03-27T01:31:45.135Z,23.6
2023-03-27T01:32:47.480Z,23.8
2023-03-27T01:33:49.845Z,23.5
2023-03-27T01:35:00.968Z,23.6
2023-03-27T01:35:56.753Z,23.6
2023-03-27T01:36:59.295Z,23.6
2023-03-27T01:38:01.360Z,23.6
2023-03-27T01:39:03.064Z,23.5
2023-03-27T01:40:04.963Z,23.6
2023-03-27T01:41:07.039Z,23.6
2023-03-27T01:42:09.160Z,23.6
2023-03-27T01:43:11.236Z,23.6
2023-03-27T01:44:13.131Z,23.7
2023-03-27T01:45:15.214Z,23.5
2023-03-27T01:46:17.377Z,23.6
2023-03-27T01:47:19.490Z,23.8
2023-03-27T01:48:21.794Z,24.1
2023-03-27T01:49:23.469Z,23.8
2023-03-27T01:50:25.620Z,23.8
2023-03-27T01:51:27.805Z,23.7
2023-03-27T01:52:30.066Z,23.9
2023-03-27T01:53:31.765Z,23.7
2023-03-27T01:54:33.872Z,23.8
2023-03-27T01:55:35.962Z,23.7
2023-03-27T01:56:38.162Z,23.7
2023-03-27T01:57:48.828Z,23.6
2023-03-27T01:58:45.462Z,23.7
2023-03-27T01:59:47.702Z,23.7
2023-03-27T02:00:51.175Z,23.9
2023-03-27T02:01:54.776Z,23.7
2023-03-27T02:02:56.712Z,23.8
2023-03-27T02:03:59.070Z,23.7
2023-03-27T02:05:01.170Z,23.9
2023-03-27T02:06:03.272Z,23.7
2023-03-27T02:07:05.199Z,23.6
2023-03-27T02:08:07.398Z,23.7
2023-03-27T02:09:09.470Z,23.7
2023-03-27T02:10:11.573Z,23.9
2023-03-27T02:11:13.454Z,23.6
2023-03-27T02:12:15.354Z,24
2023-03-27T02:13:17.476Z,23.8
2023-03-27T02:14:19.574Z,24
2023-03-27T02:15:22.881Z,23.7
2023-03-27T02:16:26.439Z,23.9
2023-03-27T02:17:28.800Z,23.8
2023-03-27T02:18:31.036Z,23.7
2023-03-27T02:19:33.150Z,23.8
2023-03-27T02:20:35.029Z,23.9
2023-03-27T02:21:37.185Z,23.8
2023-03-27T02:22:39.208Z,23.9
2023-03-27T02:23:41.568Z,23.9
2023-03-27T02:24:43.276Z,23.8
2023-03-27T02:25:45.424Z,23.8
2023-03-27T02:26:47.235Z,23.9
2023-03-27T02:27:49.103Z,23.8
2023-03-27T02:28:51.221Z,23.7
2023-03-27T02:29:53.288Z,23.7
2023-03-27T02:31:05.343Z,23.8
2023-03-27T02:32:00.232Z,23.8
2023-03-27T02:33:02.726Z,23.9
2023-03-27T02:34:04.947Z,23.8
2023-03-27T02:35:06.860Z,23.8
2023-03-27T02:36:11.130Z,23.8
2023-03-27T02:37:13.931Z,23.9
2023-03-27T02:38:16.069Z,23.8
2023-03-27T02:39:18.254Z,24
2023-03-27T02:40:20.180Z,23.9
2023-03-27T02:41:22.119Z,23.8
2023-03-27T02:42:24.217Z,23.9
2023-03-27T02:43:26.292Z,23.8
2023-03-27T02:44:28.183Z,23.8
2023-03-27T02:45:30.109Z,23.9
2023-03-27T02:46:32.286Z,23.8
2023-03-27T02:47:34.229Z,23.7
2023-03-27T02:48:36.498Z,23.8
2023-03-27T02:49:38.583Z,23.8
2023-03-27T02:50:40.444Z,23.9
2023-03-27T02:51:42.527Z,23.7
2023-03-27T02:52:44.471Z,24
2023-03-27T02:53:46.746Z,23.7
2023-03-27T02:54:49.097Z,23.9
2023-03-27T02:55:51.259Z,23.8
2023-03-27T02:56:53.297Z,23.7
2023-03-27T02:57:55.323Z,23.8
2023-03-27T02:58:57.055Z,23.9
2023-03-27T02:59:59.221Z,23.8
2023-03-27T03:01:01.071Z,23.9
2023-03-27T03:02:03.420Z,23.9
2023-03-27T03:03:05.636Z,23.8
2023-03-27T03:04:08.592Z,23.7
2023-03-27T03:05:10.279Z,23.9
2023-03-27T03:06:12.360Z,23.9
2023-03-27T03:07:14.447Z,23.8
2023-03-27T03:08:16.454Z,23.7
2023-03-27T03:09:18.542Z,23.9
2023-03-27T03:10:20.726Z,23.7
2023-03-27T03:11:22.801Z,23.7
2023-03-27T03:12:24.719Z,23.7
2023-03-27T03:13:26.661Z,23.6
2023-03-27T03:14:28.543Z,23.7
2023-03-27T03:15:30.330Z,23.8
2023-03-27T03:16:32.040Z,23.7
2023-03-27T03:17:34.235Z,23.7
2023-03-27T03:18:36.633Z,23.7
2023-03-27T03:19:38.723Z,23.8
2023-03-27T03:20:40.653Z,23.6
2023-03-27T03:21:42.562Z,23.9
2023-03-27T03:22:44.646Z,23.6
2023-03-27T03:23:57.657Z,23.8
2023-03-27T03:24:51.327Z,23.7
2023-03-27T03:25:53.559Z,23.6
2023-03-27T03:26:55.433Z,23.6
2023-03-27T03:27:57.526Z,23.7
2023-03-27T03:28:59.944Z,23.7
2023-03-27T03:30:03.430Z,23.4
2023-03-27T03:31:05.580Z,23.6
2023-03-27T03:32:08.091Z,23.7
2023-03-27T03:33:10.165Z,23.6
2023-03-27T03:34:12.054Z,23.6
2023-03-27T03:35:14.200Z,23.6
2023-03-27T03:36:16.278Z,23.6
2023-03-27T03:37:18.457Z,23.6
2023-03-27T03:38:20.796Z,23.6
2023-03-27T03:39:22.963Z,23.5
2023-03-27T03:40:24.893Z,23.5
2023-03-27T03:41:27.158Z,23.5
2023-03-27T03:42:28.856Z,23.7
2023-03-27T03:43:30.733Z,23.6
2023-03-27T03:44:32.851Z,23.5
2023-03-27T03:45:34.938Z,23.5
2023-03-27T03:46:36.988Z,23.6
2023-03-27T03:47:39.653Z,23.5
2023-03-27T03:48:42.267Z,23.5
2023-03-27T03:49:44.253Z,23.4
2023-03-27T03:50:46.375Z,23.5
2023-03-27T03:51:48.320Z,23.5
2023-03-27T03:52:53.292Z,23.5
2023-03-27T03:53:55.182Z,23.7
2023-03-27T03:54:57.259Z,23.4
2023-03-27T03:55:59.188Z,23.6
2023-03-27T03:57:01.543Z,23.5
2023-03-27T03:58:04.557Z,23.5
2023-03-27T03:59:06.325Z,23.6
2023-03-27T04:00:08.226Z,23.7
2023-03-27T04:01:10.475Z,23.4
2023-03-27T04:02:12.541Z,23.5
2023-03-27T04:03:14.939Z,23.5
2023-03-27T04:04:17.242Z,23.7
2023-03-27T04:05:19.332Z,23.5
2023-03-27T04:06:21.575Z,23.5
2023-03-27T04:07:23.842Z,23.4
2023-03-27T04:08:25.928Z,23.5
2023-03-27T04:09:27.867Z,23.5
2023-03-27T04:10:29.766Z,23.4
2023-03-27T04:11:31.835Z,23.4
2023-03-27T04:12:34.053Z,23.5
2023-03-27T04:13:36.144Z,23.4
2023-03-27T04:14:38.209Z,23.4
2023-03-27T04:15:40.360Z,23.6
2023-03-27T04:16:42.494Z,23.5
2023-03-27T04:17:44.107Z,23.4
2023-03-27T04:18:46.482Z,23.6
2023-03-27T04:19:48.971Z,23.4
2023-03-27T04:20:51.044Z,23.4
2023-03-27T04:21:53.124Z,23.6
2023-03-27T04:22:55.200Z,23.5
2023-03-27T04:23:57.291Z,23.3
2023-03-27T04:24:58.986Z,23.6
2023-03-27T04:26:00.746Z,23.3
2023-03-27T04:27:03.276Z,23.4
2023-03-27T04:28:05.326Z,23.4
2023-03-27T04:29:07.308Z,23.4
2023-03-27T04:30:09.386Z,23.5
2023-03-27T04:31:11.343Z,23.5
2023-03-27T04:32:13.537Z,23.2
2023-03-27T04:33:15.510Z,23.2
2023-03-27T04:34:17.565Z,23.1
2023-03-27T04:35:19.661Z,23.4
2023-03-27T04:36:21.715Z,23.3
2023-03-27T04:37:24.041Z,23.4
2023-03-27T04:38:26.177Z,23.4
2023-03-27T04:39:27.923Z,23.3
2023-03-27T04:40:30.109Z,23.3
2023-03-27T04:41:32.207Z,23.5
2023-03-27T04:42:34.101Z,23.5
2023-03-27T04:43:36.282Z,23.4
2023-03-27T04:44:38.631Z,23.4
2023-03-27T04:45:40.527Z,23.1
2023-03-27T04:46:42.652Z,23.3
2023-03-27T04:47:44.697Z,23.4
2023-03-27T04:48:47.140Z,23.3
2023-03-27T04:49:49.218Z,23.5
2023-03-27T04:50:51.373Z,23.4
2023-03-27T04:51:53.923Z,23.5
2023-03-27T04:52:56.165Z,23.3
2023-03-27T04:53:58.302Z,23.4
2023-03-27T04:55:00.212Z,23.3
2023-03-27T04:56:02.306Z,23.5
2023-03-27T04:57:04.228Z,23.2
2023-03-27T04:58:06.675Z,23.3
2023-03-27T04:59:08.966Z,23.2
2023-03-27T05:00:10.498Z,23.3
2023-03-27T05:01:12.661Z,23.2
2023-03-27T05:02:14.809Z,23.3
2023-03-27T05:03:16.793Z,23.1
2023-03-27T05:04:19.219Z,23.2
2023-03-27T05:05:21.328Z,23.3
2023-03-27T05:06:23.443Z,23.2
2023-03-27T05:07:25.604Z,23.2
2023-03-27T05:08:27.306Z,23.5
2023-03-27T05:09:29.395Z,23
2023-03-27T05:10:31.516Z,22.9
2023-03-27T05:11:33.435Z,23.6
2023-03-27T05:12:35.414Z,23.7
2023-03-27T05:13:37.506Z,23.1
2023-03-27T05:14:39.502Z,23.2
2023-03-27T05:15:41.608Z,23.4
2023-03-27T05:16:43.556Z,23.2
2023-03-27T05:17:45.925Z,23.1
2023-03-27T05:18:48.123Z,23.4
2023-03-27T05:19:50.028Z,23.4
2023-03-27T05:20:51.908Z,23.3
2023-03-27T05:21:53.606Z,23.1
2023-03-27T05:22:55.667Z,23.2
2023-03-27T05:23:57.814Z,23.2
2023-03-27T05:24:59.720Z,23.2
2023-03-27T05:26:01.617Z,23.2
2023-03-27T05:27:03.326Z,23.2
2023-03-27T05:28:05.430Z,23.2
2023-03-27T05:29:07.339Z,23.2
2023-03-27T05:30:09.586Z,23.3
2023-03-27T05:31:11.585Z,23.2
2023-03-27T05:32:13.942Z,23.1
2023-03-27T05:33:16.100Z,23.2
2023-03-27T05:34:18.258Z,23.3
2023-03-27T05:35:20.432Z,23.3
2023-03-27T05:36:22.680Z,23.3
2023-03-27T05:37:26.310Z,23.1
2023-03-27T05:38:29.789Z,23.2
2023-03-27T05:39:31.494Z,23.1
2023-03-27T05:40:33.581Z,23.2
2023-03-27T05:41:35.521Z,23.1
2023-03-27T05:42:37.253Z,23.1
2023-03-27T05:43:39.330Z,23.2
2023-03-27T05:44:41.492Z,23.3
2023-03-27T05:45:43.972Z,23.2
2023-03-27T05:46:46.198Z,23.3
2023-03-27T05:47:48.291Z,23.3
2023-03-27T05:48:50.215Z,23.3
2023-03-27T05:49:52.126Z,23.2
2023-03-27T05:50:54.323Z,23.1
2023-03-27T05:51:57.565Z,23.2
2023-03-27T05:52:59.692Z,23.2
2023-03-27T05:54:01.416Z,23.1
2023-03-27T05:55:03.564Z,23.2
2023-03-27T05:56:05.461Z,23.2
2023-03-27T05:57:07.602Z,23.1
2023-03-27T05:58:09.848Z,23.2
2023-03-27T05:59:12.120Z,23.4
2023-03-27T06:00:14.296Z,23.2
2023-03-27T06:01:16.648Z,23.1
2023-03-27T06:02:20.653Z,23.1
2023-03-27T06:03:23.562Z,23.2
2023-03-27T06:04:26.325Z,23
2023-03-27T06:05:28.826Z,23.1
2023-03-27T06:06:31.034Z,23.2
2023-03-27T06:07:33.043Z,23.1
2023-03-27T06:08:35.169Z,23
2023-03-27T06:09:37.261Z,23.1
2023-03-27T06:10:39.353Z,23.1
2023-03-27T06:11:41.439Z,23.1
2023-03-27T06:12:43.519Z,23.1
2023-03-27T06:13:50.932Z,23
2023-03-27T06:14:52.875Z,23.2
2023-03-27T06:15:55.188Z,23.2
2023-03-27T06:16:58.939Z,23.2
2023-03-27T06:18:00.854Z,23.1
2023-03-27T06:19:03.025Z,23.2
2023-03-27T06:20:04.562Z,23.1
2023-03-27T06:21:06.697Z,23
2023-03-27T06:22:08.858Z,23.2
2023-03-27T06:23:10.979Z,22.9
2023-03-27T06:24:13.079Z,23.1
2023-03-27T06:25:15.460Z,23.2
2023-03-27T06:26:17.731Z,23.1
2023-03-27T06:27:19.812Z,23.1
2023-03-27T06:28:21.754Z,23.2
2023-03-27T06:29:23.872Z,23.2
2023-03-27T06:30:25.590Z,23.2
2023-03-27T06:31:27.402Z,23.3
2023-03-27T06:32:30.146Z,23
2023-03-27T06:33:32.435Z,23.1
2023-03-27T06:34:34.537Z,23.2
2023-03-27T06:35:36.687Z,23.1
2023-03-27T06:36:38.982Z,23.1
2023-03-27T06:37:41.397Z,23
2023-03-27T06:38:43.508Z,23.2
2023-03-27T06:39:45.417Z,23.1
2023-03-27T06:40:47.531Z,23.3
2023-03-27T06:41:49.741Z,23.1
2023-03-27T06:42:51.886Z,23
2023-03-27T06:43:53.983Z,23.2
2023-03-27T06:44:56.072Z,23.2
2023-03-27T06:45:58.349Z,23.1
2023-03-27T06:47:01.213Z,23.1
2023-03-27T06:48:17.134Z,23.2
2023-03-27T06:49:08.738Z,23.2
2023-03-27T06:50:10.445Z,23.1
2023-03-27T06:51:12.560Z,23
2023-03-27T06:52:14.592Z,23.2
2023-03-27T06:53:26.279Z,23.1
2023-03-27T06:54:21.678Z,23.2
2023-03-27T06:55:23.812Z,23.3
2023-03-27T06:56:25.693Z,23.2
2023-03-27T06:57:27.838Z,23.2
2023-03-27T06:58:29.732Z,23.1
2023-03-27T06:59:31.648Z,23.1
2023-03-27T07:00:33.735Z,23.2
2023-03-27T07:01:35.627Z,23.1
2023-03-27T07:02:37.828Z,23.1
2023-03-27T07:03:40.052Z,23.2
2023-03-27T07:04:46.152Z,23.2
2023-03-27T07:05:47.073Z,23.1
2023-03-27T07:06:49.431Z,23.2
2023-03-27T07:07:51.115Z,23.1
2023-03-27T07:08:53.071Z,23.2
2023-03-27T07:09:55.488Z,23.1
2023-03-27T07:11:10.541Z,23.1
2023-03-27T07:12:02.446Z,23.1
2023-03-27T07:13:04.624Z,23
2023-03-27T07:14:06.777Z,23
2023-03-27T07:15:08.727Z,23.1
2023-03-27T07:16:10.882Z,23
2023-03-27T07:17:13.229Z,23
2023-03-27T07:18:15.377Z,23.2
2023-03-27T07:19:17.648Z,23.2
2023-03-27T07:20:19.348Z,23
2023-03-27T07:21:21.463Z,23.2
2023-03-27T07:22:23.399Z,23.1
2023-03-27T07:23:25.489Z,23
2023-03-27T07:24:27.388Z,23
2023-03-27T07:25:29.525Z,23
2023-03-27T07:26:31.638Z,23
2023-03-27T07:27:33.573Z,23
2023-03-27T07:28:35.752Z,23.1
2023-03-27T07:29:37.674Z,23
2023-03-27T07:30:39.604Z,23.3
2023-03-27T07:31:55.256Z,23
2023-03-27T07:32:46.554Z,23
2023-03-27T07:33:49.360Z,23.1
2023-03-27T07:34:52.216Z,22.9
2023-03-27T07:35:54.366Z,23.1
2023-03-27T07:36:57.767Z,23.1
2023-03-27T07:37:59.690Z,23
2023-03-27T07:39:01.659Z,23
2023-03-27T07:40:03.821Z,23
2023-03-27T07:41:05.964Z,23
2023-03-27T07:42:08.151Z,23.1
2023-03-27T07:43:10.364Z,23
2023-03-27T07:44:12.494Z,23
2023-03-27T07:45:14.226Z,23.1
2023-03-27T07:46:16.376Z,23
2023-03-27T07:47:18.556Z,23.2
2023-03-27T07:48:20.686Z,23.1
2023-03-27T07:49:39.101Z,23.1
2023-03-27T07:50:27.827Z,23
2023-03-27T07:51:30.092Z,22.9
2023-03-27T07:52:32.203Z,23.1
2023-03-27T07:53:34.768Z,23.1
2023-03-27T07:54:36.758Z,23.2
2023-03-27T07:55:38.926Z,23.1
2023-03-27T07:56:40.911Z,23
2023-03-27T07:57:55.337Z,23
2023-03-27T07:58:48.337Z,23.1
2023-03-27T07:59:50.458Z,23
2023-03-27T08:00:52.559Z,23.1
2023-03-27T08:01:54.742Z,23
2023-03-27T08:02:57.030Z,23.2
2023-03-27T08:03:59.818Z,23
2023-03-27T08:05:03.012Z,23
2023-03-27T08:06:05.788Z,23
2023-03-27T08:07:08.092Z,23
2023-03-27T08:08:10.000Z,23
2023-03-27T08:09:11.757Z,23.1
2023-03-27T08:10:13.688Z,23
2023-03-27T08:11:23.515Z,22.9
2023-03-27T08:12:20.605Z,23.2
2023-03-27T08:13:22.714Z,23.2
2023-03-27T08:14:24.690Z,23
2023-03-27T08:15:26.626Z,23.1
2023-03-27T08:16:28.875Z,23
2023-03-27T08:17:31.948Z,23.2
2023-03-27T08:18:34.632Z,23.1
2023-03-27T08:19:36.547Z,23
2023-03-27T08:20:38.429Z,23
2023-03-27T08:21:40.569Z,23
2023-03-27T08:22:42.586Z,23
2023-03-27T08:23:44.578Z,22.9
2023-03-27T08:24:46.530Z,22.9
2023-03-27T08:25:48.643Z,23
2023-03-27T08:26:50.792Z,23
2023-03-27T08:27:52.724Z,23.1
2023-03-27T08:28:54.858Z,23
2023-03-27T08:29:56.914Z,22.9
2023-03-27T08:31:02.458Z,22.8
2023-03-27T08:32:04.011Z,23
2023-03-27T08:33:07.525Z,23
2023-03-27T08:34:09.876Z,22.8
2023-03-27T08:35:12.071Z,22.9
2023-03-27T08:36:14.406Z,23.1
2023-03-27T08:37:16.922Z,23
2023-03-27T08:38:25.888Z,23.1
2023-03-27T08:39:24.149Z,23.1
2023-03-27T08:40:26.434Z,23
2023-03-27T08:41:28.988Z,23.1
2023-03-27T08:42:30.728Z,23.1
2023-03-27T08:43:32.884Z,23
2023-03-27T08:44:35.048Z,22.9
2023-03-27T08:45:37.181Z,23
2023-03-27T08:46:39.323Z,23.1
2023-03-27T08:47:41.505Z,22.9
2023-03-27T08:48:43.618Z,22.9
2023-03-27T08:49:45.727Z,23.1
2023-03-27T08:50:47.656Z,23.1
2023-03-27T08:51:49.768Z,23.1
2023-03-27T08:52:51.681Z,23
2023-03-27T08:53:53.929Z,23.1
2023-03-27T08:54:56.045Z,23
2023-03-27T08:55:58.360Z,23.1
2023-03-27T08:57:00.985Z,23
2023-03-27T08:58:03.473Z,22.9
2023-03-27T08:59:05.414Z,22.9
2023-03-27T09:00:07.346Z,22.8
2023-03-27T09:01:09.316Z,23.1
2023-03-27T09:02:11.268Z,22.9
2023-03-27T09:03:13.659Z,23
2023-03-27T09:04:16.359Z,23
2023-03-27T09:05:18.572Z,23
2023-03-27T09:06:20.517Z,23.1
2023-03-27T09:07:22.616Z,22.9
2023-03-27T09:08:24.331Z,23
2023-03-27T09:09:26.573Z,23
2023-03-27T09:10:29.356Z,22.9
2023-03-27T09:11:31.855Z,23
2023-03-27T09:12:34.312Z,23
2023-03-27T09:13:38.177Z,22.8
2023-03-27T09:14:40.147Z,22.9
2023-03-27T09:15:42.325Z,22.9
2023-03-27T09:16:46.659Z,23
2023-03-27T09:17:48.992Z,23
2023-03-27T09:18:51.392Z,23
2023-03-27T09:19:53.122Z,22.9
2023-03-27T09:20:54.879Z,23
2023-03-27T09:21:57.015Z,22.9
2023-03-27T09:22:58.963Z,23
2023-03-27T09:24:01.099Z,23.1
2023-03-27T09:25:03.569Z,23
2023-03-27T09:26:05.629Z,23.1
2023-03-27T09:27:07.735Z,23.2
2023-03-27T09:28:09.956Z,23
2023-03-27T09:29:12.092Z,22.9
2023-03-27T09:30:17.065Z,23
2023-03-27T09:31:19.185Z,23.1
2023-03-27T09:32:21.421Z,23.1
2023-03-27T09:33:23.438Z,23
2023-03-27T09:34:25.646Z,23.1
2023-03-27T09:35:27.661Z,23
2023-03-27T09:36:30.090Z,23
2023-03-27T09:37:32.199Z,23
2023-03-27T09:38:38.012Z,23.1
2023-03-27T09:39:40.158Z,23
2023-03-27T09:40:42.381Z,23
2023-03-27T09:41:44.483Z,23.1
2023-03-27T09:42:46.637Z,23
2023-03-27T09:43:48.744Z,23
2023-03-27T09:44:50.695Z,23
2023-03-27T09:45:52.811Z,23.1
2023-03-27T09:46:55.558Z,23
2023-03-27T09:47:57.938Z,23.1
2023-03-27T09:49:00.188Z,23
2023-03-27T09:50:02.106Z,23
2023-03-27T09:51:04.224Z,23.1
2023-03-27T09:52:06.363Z,23.1
2023-03-27T09:53:08.503Z,22.9
2023-03-27T09:54:10.681Z,23.1
2023-03-27T09:55:12.838Z,23.1
2023-03-27T09:56:15.045Z,23
2023-03-27T09:57:16.999Z,23
2023-03-27T09:58:19.570Z,23.2
2023-03-27T09:59:21.671Z,22.9
2023-03-27T10:00:23.833Z,23
2023-03-27T10:01:26.012Z,23
2023-03-27T10:02:28.055Z,23
2023-03-27T10:03:30.622Z,23
2023-03-27T10:04:32.965Z,23.2
2023-03-27T10:05:35.142Z,23
2023-03-27T10:06:37.304Z,23
2023-03-27T10:07:39.349Z,22.8
2023-03-27T10:08:41.494Z,22.9
2023-03-27T10:09:43.489Z,23
2023-03-27T10:10:45.472Z,22.9
2023-03-27T10:11:47.748Z,22.9
2023-03-27T10:12:49.857Z,22.9
2023-03-27T10:13:51.960Z,23
2023-03-27T10:14:54.016Z,23
2023-03-27T10:15:56.162Z,22.9
2023-03-27T10:16:58.358Z,23
2023-03-27T10:18:00.782Z,23
2023-03-27T10:19:03.248Z,23
2023-03-27T10:20:05.004Z,23.1
2023-03-27T10:21:06.972Z,23.1
2023-03-27T10:22:08.904Z,23
2023-03-27T10:23:13.900Z,23
2023-03-27T10:24:16.127Z,23.2
2023-03-27T10:25:18.345Z,23.1
2023-03-27T10:26:20.459Z,23
2023-03-27T10:27:22.663Z,22.9
2023-03-27T10:28:24.816Z,23.1
2023-03-27T10:29:26.771Z,23
2023-03-27T10:30:28.965Z,22.9
2023-03-27T10:31:31.155Z,23
2023-03-27T10:32:33.621Z,22.9
2023-03-27T10:33:36.150Z,22.9
2023-03-27T10:34:38.157Z,22.9
2023-03-27T10:35:40.142Z,23
2023-03-27T10:36:42.200Z,22.9
2023-03-27T10:37:49.752Z,23.1
2023-03-27T10:38:49.087Z,23
2023-03-27T10:39:51.029Z,23.1
2023-03-27T10:40:53.187Z,23.1
2023-03-27T10:41:55.345Z,23
2023-03-27T10:42:57.583Z,23
2023-03-27T10:43:59.697Z,23
2023-03-27T10:45:01.930Z,23.1
2023-03-27T10:46:04.060Z,23
2023-03-27T10:47:06.642Z,22.9
2023-03-27T10:48:08.984Z,23
2023-03-27T10:49:11.137Z,22.9
2023-03-27T10:50:13.292Z,22.9
2023-03-27T10:51:15.640Z,23
2023-03-27T10:52:17.543Z,22.9
2023-03-27T10:53:19.428Z,22.9
2023-03-27T10:54:21.930Z,23
2023-03-27T10:55:24.739Z,22.9
2023-03-27T10:56:26.831Z,23
2023-03-27T10:57:28.720Z,23
2023-03-27T10:58:30.922Z,23.1
2023-03-27T10:59:40.852Z,23.1
2023-03-27T11:00:38.038Z,23.1
2023-03-27T11:01:40.237Z,22.7
2023-03-27T11:02:42.852Z,23
2023-03-27T11:03:44.779Z,23
2023-03-27T11:04:46.996Z,23
2023-03-27T11:05:48.872Z,23.1
2023-03-27T11:06:51.005Z,23.1
2023-03-27T11:07:53.178Z,23
2023-03-27T11:08:55.304Z,22.9
2023-03-27T11:09:57.241Z,23.1
2023-03-27T11:10:59.491Z,22.9
2023-03-27T11:12:01.683Z,23
2023-03-27T11:13:03.492Z,23
2023-03-27T11:14:05.811Z,23
2023-03-27T11:15:08.086Z,22.9
2023-03-27T11:16:09.785Z,23
2023-03-27T11:17:12.063Z,23
2023-03-27T11:18:14.050Z,23
2023-03-27T11:19:16.204Z,23
2023-03-27T11:20:18.089Z,23.1
2023-03-27T11:21:20.239Z,23.1
2023-03-27T11:22:22.185Z,23.1
2023-03-27T11:23:23.934Z,23.1
2023-03-27T11:24:26.041Z,23.1
2023-03-27T11:25:27.949Z,23
2023-03-27T11:26:30.103Z,23.1
2023-03-27T11:27:32.045Z,23.1
2023-03-27T11:28:33.963Z,23.1
2023-03-27T11:29:36.066Z,23.1
2023-03-27T11:30:38.236Z,23
2023-03-27T11:31:40.478Z,23
2023-03-27T11:32:42.940Z,23.2
2023-03-27T11:33:45.209Z,22.9
2023-03-27T11:34:47.316Z,22.9
2023-03-27T11:35:49.274Z,23
2023-03-27T11:36:51.706Z,23
2023-03-27T11:37:53.854Z,23
2023-03-27T11:38:56.000Z,23.1
2023-03-27T11:39:58.144Z,23
2023-03-27T11:41:00.306Z,23.1
2023-03-27T11:42:02.468Z,23
2023-03-27T11:43:04.591Z,23.1
2023-03-27T11:44:06.727Z,23.1
2023-03-27T11:45:08.814Z,22.9
2023-03-27T11:46:11.051Z,23.1
2023-03-27T11:47:13.451Z,23
2023-03-27T11:48:15.406Z,23.1
2023-03-27T11:49:17.883Z,22.9
2023-03-27T11:50:19.980Z,23.1
2023-03-27T11:51:22.108Z,23.1
2023-03-27T11:52:24.202Z,23.1
2023-03-27T11:53:26.334Z,23
2023-03-27T11:54:28.271Z,23
2023-03-27T11:55:31.300Z,23
2023-03-27T11:56:34.544Z,23
2023-03-27T11:57:36.758Z,22.8
2023-03-27T11:58:38.967Z,22.9
2023-03-27T11:59:40.857Z,23.2
2023-03-27T12:00:43.129Z,23
2023-03-27T12:01:44.976Z,23
2023-03-27T12:02:47.381Z,23
2023-03-27T12:03:50.541Z,23
2023-03-27T12:04:53.482Z,23
2023-03-27T12:05:55.564Z,23
2023-03-27T12:07:01.753Z,23
2023-03-27T12:08:02.641Z,22.9
2023-03-27T12:09:04.726Z,23
2023-03-27T12:10:06.889Z,23
2023-03-27T12:11:08.837Z,23
2023-03-27T12:12:10.956Z,23.1
2023-03-27T12:13:12.846Z,23.1
2023-03-27T12:14:18.258Z,23
2023-03-27T12:15:19.526Z,23.2
2023-03-27T12:16:21.758Z,23
2023-03-27T12:17:23.968Z,23
2023-03-27T12:18:32.403Z,23.1
2023-03-27T12:19:36.411Z,23
2023-03-27T12:20:38.310Z,23
2023-03-27T12:21:43.824Z,23.1
2023-03-27T12:22:45.959Z,23
2023-03-27T12:23:48.073Z,23
2023-03-27T12:24:59.236Z,23
2023-03-27T12:25:55.170Z,23.1
2023-03-27T12:26:57.273Z,23.1
2023-03-27T12:27:59.374Z,23
2023-03-27T12:29:01.475Z,23
2023-03-27T12:30:07.625Z,23
2023-03-27T12:31:09.812Z,23
2023-03-27T12:32:12.091Z,22.9
2023-03-27T12:33:14.594Z,23
2023-03-27T12:34:16.681Z,23
2023-03-27T12:35:21.544Z,23.1
2023-03-27T12:36:23.773Z,23
2023-03-27T12:37:25.964Z,23
2023-03-27T12:38:28.109Z,23
2023-03-27T12:39:30.077Z,23
2023-03-27T12:40:31.804Z,23.1
2023-03-27T12:41:33.714Z,23.1
2023-03-27T12:42:35.428Z,23
2023-03-27T12:43:40.404Z,23.1
2023-03-27T12:44:42.326Z,23
2023-03-27T12:45:51.068Z,23.1
2023-03-27T12:46:49.262Z,23.2
2023-03-27T12:47:51.728Z,23
2023-03-27T12:48:54.009Z,23.1
2023-03-27T12:49:56.170Z,23.2
2023-03-27T12:50:58.268Z,23.2
2023-03-27T12:52:02.078Z,23
2023-03-27T12:53:04.006Z,23
2023-03-27T12:54:05.716Z,23
2023-03-27T12:55:07.841Z,23.1
2023-03-27T12:56:09.830Z,23
2023-03-27T12:57:11.865Z,23
2023-03-27T12:58:14.777Z,23.1
2023-03-27T12:59:17.549Z,23
2023-03-27T13:00:19.731Z,23
2023-03-27T13:01:21.747Z,23
2023-03-27T13:02:24.211Z,23
2023-03-27T13:03:27.332Z,23
2023-03-27T13:04:29.520Z,23.1
2023-03-27T13:05:31.430Z,23
2023-03-27T13:06:33.362Z,23
2023-03-27T13:07:35.317Z,22.9
2023-03-27T13:08:36.836Z,23.1
2023-03-27T13:09:38.740Z,23.1
2023-03-27T13:10:40.653Z,23
2023-03-27T13:11:42.759Z,23
2023-03-27T13:12:45.242Z,23
2023-03-27T13:13:47.408Z,23
2023-03-27T13:14:49.170Z,23
2023-03-27T13:15:51.323Z,23
2023-03-27T13:16:53.460Z,22.9
2023-03-27T13:17:55.207Z,23
2023-03-27T13:18:57.951Z,23.2
2023-03-27T13:19:59.661Z,23
2023-03-27T13:21:01.873Z,23.1
2023-03-27T13:22:03.793Z,23
2023-03-27T13:23:05.988Z,23.1
2023-03-27T13:24:08.750Z,23.1
2023-03-27T13:25:10.918Z,23.1
2023-03-27T13:26:12.857Z,23.1
2023-03-27T13:27:14.773Z,22.9
2023-03-27T13:28:16.661Z,23
2023-03-27T13:29:18.771Z,22.9
2023-03-27T13:30:20.686Z,23
2023-03-27T13:31:22.852Z,23.1
2023-03-27T13:32:25.202Z,23
2023-03-27T13:33:27.534Z,23
2023-03-27T13:34:29.860Z,23
2023-03-27T13:35:32.068Z,23
2023-03-27T13:36:34.237Z,23.1
2023-03-27T13:37:37.068Z,23
2023-03-27T13:38:38.861Z,23
2023-03-27T13:39:41.037Z,23
2023-03-27T13:40:43.161Z,23
2023-03-27T13:41:45.293Z,23
2023-03-27T13:42:47.442Z,23.1
2023-03-27T13:43:49.562Z,23
2023-03-27T13:44:51.260Z,23
2023-03-27T13:45:53.185Z,23
2023-03-27T13:46:55.670Z,22.9
2023-03-27T13:47:58.069Z,23
2023-03-27T13:49:00.203Z,23
2023-03-27T13:50:02.395Z,23.1
2023-03-27T13:51:04.603Z,22.9
2023-03-27T13:52:06.517Z,23.1
2023-03-27T13:53:08.641Z,23
2023-03-27T13:54:10.769Z,23
2023-03-27T13:55:12.676Z,23.2
2023-03-27T13:56:14.597Z,22.9
2023-03-27T13:57:16.766Z,22.9
2023-03-27T13:58:19.179Z,22.9
2023-03-27T13:59:21.084Z,23.1
2023-03-27T14:00:23.015Z,23
2023-03-27T14:01:25.190Z,23
2023-03-27T14:02:27.701Z,23
2023-03-27T14:03:30.234Z,22.8
2023-03-27T14:04:32.702Z,23